sensor_id;sensor_type;location;lat;lon;timestamp;pressure;altitude;pressure_sealevel;temperature;humidity
72274;BME280;77240;48.692;8.948;2024-03-22T00:02:02;97394.72;;;7.48;77.18
72274;BME280;77240;48.692;8.948;2024-03-22T00:04:28;97397.94;;;7.43;76.52
72274;BME280;77240;48.692;8.948;2024-03-22T00:06:55;97387.28;;;7.38;77.02
72274;BME280;77240;48.692;8.948;2024-03-22T00:09:21;97392.06;;;7.34;77.24
72274;BME280;77240;48.692;8.948;2024-03-22T00:11:49;97393.28;;;7.29;77.29
72274;BME280;77240;48.692;8.948;2024-03-22T00:14:15;97384.25;;;7.25;77.05
72274;BME280;77240;48.692;8.948;2024-03-22T00:16:42;97379.91;;;7.21;77.17
72274;BME280;77240;48.692;8.948;2024-03-22T00:19:08;97386.28;;;7.18;77.25
72274;BME280;77240;48.692;8.948;2024-03-22T00:21:35;97383.16;;;7.12;77.24
72274;BME280;77240;48.692;8.948;2024-03-22T00:24:01;97379.59;;;7.08;77.44
72274;BME280;77240;48.692;8.948;2024-03-22T00:26:27;97381.63;;;7.04;77.59
72274;BME280;77240;48.692;8.948;2024-03-22T00:28:54;97380.84;;;7.00;77.71
72274;BME280;77240;48.692;8.948;2024-03-22T00:31:20;97383.28;;;6.95;77.72
72274;BME280;77240;48.692;8.948;2024-03-22T00:33:46;97382.91;;;6.89;78.04
72274;BME280;77240;48.692;8.948;2024-03-22T00:36:12;97376.59;;;6.85;78.18
72274;BME280;77240;48.692;8.948;2024-03-22T00:38:39;97374.28;;;6.80;78.35
72274;BME280;77240;48.692;8.948;2024-03-22T00:41:05;97374.69;;;6.75;78.35
72274;BME280;77240;48.692;8.948;2024-03-22T00:43:31;97362.88;;;6.67;78.53
72274;BME280;77240;48.692;8.948;2024-03-22T00:45:57;97357.00;;;6.62;78.82
72274;BME280;77240;48.692;8.948;2024-03-22T00:48:24;97351.09;;;6.56;78.69
72274;BME280;77240;48.692;8.948;2024-03-22T00:50:50;97353.09;;;6.52;79.10
72274;BME280;77240;48.692;8.948;2024-03-22T00:53:17;97355.09;;;6.48;79.23
72274;BME280;77240;48.692;8.948;2024-03-22T00:55:44;97338.13;;;6.43;79.11
72274;BME280;77240;48.692;8.948;2024-03-22T00:58:10;97343.69;;;6.39;78.62
72274;BME280;77240;48.692;8.948;2024-03-22T01:00:36;97342.13;;;6.34;79.39
72274;BME280;77240;48.692;8.948;2024-03-22T01:03:04;97335.03;;;6.30;79.31
72274;BME280;77240;48.692;8.948;2024-03-22T01:05:30;97336.22;;;6.25;79.46
72274;BME280;77240;48.692;8.948;2024-03-22T01:07:56;97332.72;;;6.21;79.41
72274;BME280;77240;48.692;8.948;2024-03-22T01:10:22;97333.94;;;6.17;79.82
72274;BME280;77240;48.692;8.948;2024-03-22T01:12:48;97327.63;;;6.13;80.34
72274;BME280;77240;48.692;8.948;2024-03-22T01:15:14;97325.66;;;6.10;80.08
72274;BME280;77240;48.692;8.948;2024-03-22T01:17:41;97326.44;;;6.07;80.08
72274;BME280;77240;48.692;8.948;2024-03-22T01:20:08;97323.69;;;6.03;80.35
72274;BME280;77240;48.692;8.948;2024-03-22T01:22:34;97317.41;;;5.99;80.08
72274;BME280;77240;48.692;8.948;2024-03-22T01:25:01;97317.41;;;5.96;80.54
72274;BME280;77240;48.692;8.948;2024-03-22T01:27:28;97315.88;;;5.91;80.27
72274;BME280;77240;48.692;8.948;2024-03-22T01:29:54;97320.19;;;5.89;80.49
72274;BME280;77240;48.692;8.948;2024-03-22T01:32:23;97309.91;;;5.85;80.61
72274;BME280;77240;48.692;8.948;2024-03-22T01:34:49;97313.50;;;5.82;80.44
72274;BME280;77240;48.692;8.948;2024-03-22T01:37:16;97310.75;;;5.79;80.41
72274;BME280;77240;48.692;8.948;2024-03-22T01:39:42;97307.19;;;5.75;80.36
72274;BME280;77240;48.692;8.948;2024-03-22T01:42:10;97306.41;;;5.71;80.53
72274;BME280;77240;48.692;8.948;2024-03-22T01:44:36;97299.31;;;5.66;80.20
72274;BME280;77240;48.692;8.948;2024-03-22T01:47:03;97304.50;;;5.61;80.26
72274;BME280;77240;48.692;8.948;2024-03-22T01:49:30;97306.47;;;5.57;80.26
72274;BME280;77240;48.692;8.948;2024-03-22T01:51:56;97309.25;;;5.53;80.27
72274;BME280;77240;48.692;8.948;2024-03-22T01:54:23;97306.09;;;5.48;80.25
72274;BME280;77240;48.692;8.948;2024-03-22T01:56:51;97304.91;;;5.45;80.67
72274;BME280;77240;48.692;8.948;2024-03-22T01:59:19;97299.41;;;5.42;81.07
72274;BME280;77240;48.692;8.948;2024-03-22T02:01:50;97303.75;;;5.39;80.83
72274;BME280;77240;48.692;8.948;2024-03-22T02:04:16;97297.03;;;5.36;81.06
72274;BME280;77240;48.692;8.948;2024-03-22T02:06:44;97295.88;;;5.34;80.98
72274;BME280;77240;48.692;8.948;2024-03-22T02:09:10;97289.19;;;5.31;80.76
72274;BME280;77240;48.692;8.948;2024-03-22T02:11:36;97283.66;;;5.28;80.71
72274;BME280;77240;48.692;8.948;2024-03-22T02:14:06;97280.91;;;5.24;80.73
72274;BME280;77240;48.692;8.948;2024-03-22T02:16:33;97273.41;;;5.21;80.77
72274;BME280;77240;48.692;8.948;2024-03-22T02:18:59;97274.63;;;5.17;80.98
72274;BME280;77240;48.692;8.948;2024-03-22T02:21:25;97276.19;;;5.14;81.37
72274;BME280;77240;48.692;8.948;2024-03-22T02:23:53;97265.94;;;5.11;81.44
72274;BME280;77240;48.692;8.948;2024-03-22T02:26:19;97269.50;;;5.08;81.52
72274;BME280;77240;48.692;8.948;2024-03-22T02:28:45;97264.78;;;5.05;81.75
72274;BME280;77240;48.692;8.948;2024-03-22T02:31:11;97263.56;;;5.03;81.30
72274;BME280;77240;48.692;8.948;2024-03-22T02:33:37;97265.94;;;5.01;81.26
72274;BME280;77240;48.692;8.948;2024-03-22T02:36:05;97272.66;;;4.96;81.57
72274;BME280;77240;48.692;8.948;2024-03-22T02:38:31;97262.03;;;4.95;81.65
72274;BME280;77240;48.692;8.948;2024-03-22T02:40:58;97274.25;;;4.94;81.75
72274;BME280;77240;48.692;8.948;2024-03-22T02:43:26;97273.44;;;4.93;82.11
72274;BME280;77240;48.692;8.948;2024-03-22T02:45:52;97271.06;;;4.92;82.08
72274;BME280;77240;48.692;8.948;2024-03-22T02:48:18;97265.56;;;4.92;82.32
72274;BME280;77240;48.692;8.948;2024-03-22T02:50:45;97258.06;;;4.92;82.73
72274;BME280;77240;48.692;8.948;2024-03-22T02:53:12;97258.06;;;4.92;82.39
72274;BME280;77240;48.692;8.948;2024-03-22T02:55:39;97240.34;;;4.93;82.32
72274;BME280;77240;48.692;8.948;2024-03-22T02:58:10;97254.50;;;4.95;82.53
72274;BME280;77240;48.692;8.948;2024-03-22T03:00:39;97252.94;;;4.98;82.79
72274;BME280;77240;48.692;8.948;2024-03-22T03:03:06;97257.66;;;5.01;82.33
72274;BME280;77240;48.692;8.948;2024-03-22T03:05:33;97259.25;;;5.02;82.52
72274;BME280;77240;48.692;8.948;2024-03-22T03:08:01;97256.88;;;5.04;82.78
72274;BME280;77240;48.692;8.948;2024-03-22T03:10:27;97252.53;;;5.06;82.92
72274;BME280;77240;48.692;8.948;2024-03-22T03:12:54;97250.97;;;5.09;82.47
72274;BME280;77240;48.692;8.948;2024-03-22T03:15:21;97251.75;;;5.13;83.09
72274;BME280;77240;48.692;8.948;2024-03-22T03:17:49;97251.31;;;5.18;83.10
72274;BME280;77240;48.692;8.948;2024-03-22T03:20:15;97244.22;;;5.24;83.22
72274;BME280;77240;48.692;8.948;2024-03-22T03:22:43;97250.50;;;5.31;83.35
72274;BME280;77240;48.692;8.948;2024-03-22T03:25:09;97243.38;;;5.37;83.23
72274;BME280;77240;48.692;8.948;2024-03-22T03:27:36;97228.38;;;5.46;83.34
72274;BME280;77240;48.692;8.948;2024-03-22T03:30:02;97233.47;;;5.51;83.24
72274;BME280;77240;48.692;8.948;2024-03-22T03:32:29;97229.09;;;5.57;83.23
72274;BME280;77240;48.692;8.948;2024-03-22T03:34:55;97229.47;;;5.62;83.00
72274;BME280;77240;48.692;8.948;2024-03-22T03:37:21;97220.78;;;5.67;82.95
72274;BME280;77240;48.692;8.948;2024-03-22T03:39:48;97223.13;;;5.72;82.69
72274;BME280;77240;48.692;8.948;2024-03-22T03:42:15;97230.19;;;5.77;82.53
72274;BME280;77240;48.692;8.948;2024-03-22T03:44:41;97220.31;;;5.79;82.46
72274;BME280;77240;48.692;8.948;2024-03-22T03:47:08;97219.50;;;5.82;82.18
72274;BME280;77240;48.692;8.948;2024-03-22T03:49:34;97230.19;;;5.84;82.50
72274;BME280;77240;48.692;8.948;2024-03-22T03:52:01;97233.34;;;5.86;82.33
72274;BME280;77240;48.692;8.948;2024-03-22T03:54:29;97226.63;;;5.87;82.43
72274;BME280;77240;48.692;8.948;2024-03-22T03:56:55;97220.69;;;5.89;81.98
72274;BME280;77240;48.692;8.948;2024-03-22T03:59:21;97220.28;;;5.90;81.90
72274;BME280;77240;48.692;8.948;2024-03-22T04:01:47;97217.91;;;5.92;82.30
72274;BME280;77240;48.692;8.948;2024-03-22T04:04:14;97224.63;;;5.95;82.36
72274;BME280;77240;48.692;8.948;2024-03-22T04:06:40;97223.41;;;5.96;82.02
72274;BME280;77240;48.692;8.948;2024-03-22T04:09:06;97213.94;;;5.97;81.66
72274;BME280;77240;48.692;8.948;2024-03-22T04:11:32;97206.81;;;5.99;81.87
72274;BME280;77240;48.692;8.948;2024-03-22T04:13:58;97210.75;;;6.02;81.78
72274;BME280;77240;48.692;8.948;2024-03-22T04:16:24;97206.38;;;6.04;81.94
72274;BME280;77240;48.692;8.948;2024-03-22T04:18:50;97211.50;;;6.09;82.13
72274;BME280;77240;48.692;8.948;2024-03-22T04:21:16;97207.91;;;6.12;81.53
72274;BME280;77240;48.692;8.948;2024-03-22T04:23:42;97216.53;;;6.18;82.11
72274;BME280;77240;48.692;8.948;2024-03-22T04:26:08;97207.03;;;6.22;81.98
72274;BME280;77240;48.692;8.948;2024-03-22T04:28:35;97203.84;;;6.27;81.71
72274;BME280;77240;48.692;8.948;2024-03-22T04:31:02;97210.50;;;6.33;81.62
72274;BME280;77240;48.692;8.948;2024-03-22T04:33:30;97204.97;;;6.37;81.24
72274;BME280;77240;48.692;8.948;2024-03-22T04:35:57;97205.72;;;6.41;81.48
72274;BME280;77240;48.692;8.948;2024-03-22T04:38:24;97208.06;;;6.46;81.34
72274;BME280;77240;48.692;8.948;2024-03-22T04:40:52;97208.81;;;6.50;81.23
72274;BME280;77240;48.692;8.948;2024-03-22T04:43:19;97213.53;;;6.53;80.99
72274;BME280;77240;48.692;8.948;2024-03-22T04:45:46;97211.13;;;6.55;80.72
72274;BME280;77240;48.692;8.948;2024-03-22T04:48:16;97213.47;;;6.60;80.57
72274;BME280;77240;48.692;8.948;2024-03-22T04:50:43;97214.22;;;6.64;81.04
72274;BME280;77240;48.692;8.948;2024-03-22T04:53:09;97223.28;;;6.68;80.39
72274;BME280;77240;48.692;8.948;2024-03-22T04:55:36;97219.72;;;6.71;80.44
72274;BME280;77240;48.692;8.948;2024-03-22T04:58:06;97211.38;;;6.75;80.86
72274;BME280;77240;48.692;8.948;2024-03-22T05:00:32;97207.38;;;6.79;80.52
72274;BME280;77240;48.692;8.948;2024-03-22T05:02:58;97211.69;;;6.84;80.16
72274;BME280;77240;48.692;8.948;2024-03-22T05:05:25;97215.63;;;6.87;80.38
72274;BME280;77240;48.692;8.948;2024-03-22T05:07:51;97217.16;;;6.91;79.91
72274;BME280;77240;48.692;8.948;2024-03-22T05:10:17;97213.16;;;6.96;79.74
72274;BME280;77240;48.692;8.948;2024-03-22T05:12:43;97213.13;;;6.99;79.74
72274;BME280;77240;48.692;8.948;2024-03-22T05:15:10;97216.25;;;7.01;79.74
72274;BME280;77240;48.692;8.948;2024-03-22T05:17:36;97222.59;;;7.02;79.39
72274;BME280;77240;48.692;8.948;2024-03-22T05:20:02;97215.88;;;7.03;79.35
72274;BME280;77240;48.692;8.948;2024-03-22T05:22:28;97215.47;;;7.01;78.79
72274;BME280;77240;48.692;8.948;2024-03-22T05:24:54;97208.78;;;6.98;78.82
72274;BME280;77240;48.692;8.948;2024-03-22T05:27:20;97207.63;;;6.96;78.88
72274;BME280;77240;48.692;8.948;2024-03-22T05:29:46;97206.88;;;6.92;78.82
72274;BME280;77240;48.692;8.948;2024-03-22T05:32:13;97204.91;;;6.89;78.74
72274;BME280;77240;48.692;8.948;2024-03-22T05:34:39;97197.41;;;6.86;78.92
72274;BME280;77240;48.692;8.948;2024-03-22T05:37:06;97196.66;;;6.81;78.77
72274;BME280;77240;48.692;8.948;2024-03-22T05:39:34;97197.13;;;6.76;78.81
72274;BME280;77240;48.692;8.948;2024-03-22T05:42:00;97192.03;;;6.71;78.57
72274;BME280;77240;48.692;8.948;2024-03-22T05:44:26;97186.16;;;6.66;78.63
72274;BME280;77240;48.692;8.948;2024-03-22T05:46:53;97185.00;;;6.60;78.88
72274;BME280;77240;48.692;8.948;2024-03-22T05:49:18;97176.38;;;6.54;78.66
72274;BME280;77240;48.692;8.948;2024-03-22T05:51:46;97187.88;;;6.49;78.90
72274;BME280;77240;48.692;8.948;2024-03-22T05:54:12;97183.16;;;6.46;78.92
72274;BME280;77240;48.692;8.948;2024-03-22T05:56:40;97176.88;;;6.42;79.14
72274;BME280;77240;48.692;8.948;2024-03-22T05:59:05;97180.44;;;6.39;79.33
72274;BME280;77240;48.692;8.948;2024-03-22T06:01:32;97173.72;;;6.37;79.45
72274;BME280;77240;48.692;8.948;2024-03-22T06:03:58;97172.97;;;6.36;79.98
72274;BME280;77240;48.692;8.948;2024-03-22T06:06:24;97163.88;;;6.36;79.97
72274;BME280;77240;48.692;8.948;2024-03-22T06:08:53;97161.91;;;6.36;80.17
72274;BME280;77240;48.692;8.948;2024-03-22T06:11:20;97162.28;;;6.38;80.43
72274;BME280;77240;48.692;8.948;2024-03-22T06:13:49;97167.78;;;6.42;80.44
72274;BME280;77240;48.692;8.948;2024-03-22T06:16:18;97170.50;;;6.45;80.64
72274;BME280;77240;48.692;8.948;2024-03-22T06:18:44;97167.72;;;6.49;81.15
72274;BME280;77240;48.692;8.948;2024-03-22T06:21:11;97169.25;;;6.53;81.28
72274;BME280;77240;48.692;8.948;2024-03-22T06:23:40;97164.47;;;6.57;81.24
72274;BME280;77240;48.692;8.948;2024-03-22T06:26:07;97167.19;;;6.64;81.28
72274;BME280;77240;48.692;8.948;2024-03-22T06:28:33;97162.78;;;6.67;81.18
72274;BME280;77240;48.692;8.948;2024-03-22T06:30:59;97153.66;;;6.73;81.46
72274;BME280;77240;48.692;8.948;2024-03-22T06:33:26;97172.22;;;6.76;81.17
72274;BME280;77240;48.692;8.948;2024-03-22T06:35:52;97165.03;;;6.82;81.46
72274;BME280;77240;48.692;8.948;2024-03-22T06:38:18;97158.25;;;6.87;81.14
72274;BME280;77240;48.692;8.948;2024-03-22T06:40:44;97169.66;;;6.93;81.39
72274;BME280;77240;48.692;8.948;2024-03-22T06:43:11;97159.72;;;6.99;81.34
72274;BME280;77240;48.692;8.948;2024-03-22T06:45:37;97162.03;;;7.04;81.45
72274;BME280;77240;48.692;8.948;2024-03-22T06:48:03;97155.22;;;7.12;81.35
72274;BME280;77240;48.692;8.948;2024-03-22T06:50:35;97150.81;;;7.18;81.75
72274;BME280;77240;48.692;8.948;2024-03-22T06:53:01;97158.25;;;7.24;81.17
72274;BME280;77240;48.692;8.948;2024-03-22T06:55:28;97154.97;;;7.33;81.60
72274;BME280;77240;48.692;8.948;2024-03-22T06:57:54;97158.81;;;7.43;81.78
72274;BME280;77240;48.692;8.948;2024-03-22T07:00:21;97155.94;;;7.50;81.39
72274;BME280;77240;48.692;8.948;2024-03-22T07:02:47;97167.31;;;7.59;81.88
72274;BME280;77240;48.692;8.948;2024-03-22T07:05:13;97162.03;;;7.68;81.53
72274;BME280;77240;48.692;8.948;2024-03-22T07:07:39;97160.75;;;7.76;81.28
72274;BME280;77240;48.692;8.948;2024-03-22T07:10:06;97161.44;;;7.84;81.39
72274;BME280;77240;48.692;8.948;2024-03-22T07:12:32;97154.94;;;7.94;81.04
72274;BME280;77240;48.692;8.948;2024-03-22T07:15:00;97155.22;;;8.03;80.57
72274;BME280;77240;48.692;8.948;2024-03-22T07:17:27;97151.13;;;8.11;81.04
72274;BME280;77240;48.692;8.948;2024-03-22T07:19:54;97148.59;;;8.20;80.70
72274;BME280;77240;48.692;8.948;2024-03-22T07:22:21;97151.22;;;8.31;80.87
72274;BME280;77240;48.692;8.948;2024-03-22T07:24:48;97153.06;;;8.41;80.48
72274;BME280;77240;48.692;8.948;2024-03-22T07:27:15;97149.31;;;8.51;80.43
72274;BME280;77240;48.692;8.948;2024-03-22T07:29:41;97141.19;;;8.63;80.03
72274;BME280;77240;48.692;8.948;2024-03-22T07:32:08;97139.00;;;8.74;79.91
72274;BME280;77240;48.692;8.948;2024-03-22T07:34:33;97143.91;;;8.87;80.35
72274;BME280;77240;48.692;8.948;2024-03-22T07:37:00;97137.75;;;8.99;80.01
72274;BME280;77240;48.692;8.948;2024-03-22T07:39:26;97135.91;;;9.12;79.80
72274;BME280;77240;48.692;8.948;2024-03-22T07:41:52;97137.63;;;9.25;79.59
72274;BME280;77240;48.692;8.948;2024-03-22T07:44:19;97135.75;;;9.39;79.47
72274;BME280;77240;48.692;8.948;2024-03-22T07:46:50;97132.25;;;9.54;79.28
72274;BME280;77240;48.692;8.948;2024-03-22T07:49:17;97124.84;;;9.67;79.31
72274;BME280;77240;48.692;8.948;2024-03-22T07:51:43;97122.94;;;9.81;78.68
72274;BME280;77240;48.692;8.948;2024-03-22T07:54:11;97130.97;;;9.95;77.88
72274;BME280;77240;48.692;8.948;2024-03-22T07:56:37;97123.16;;;10.06;77.74
72274;BME280;77240;48.692;8.948;2024-03-22T07:59:03;97121.31;;;10.19;77.07
72274;BME280;77240;48.692;8.948;2024-03-22T08:01:29;97126.16;;;10.31;76.73
72274;BME280;77240;48.692;8.948;2024-03-22T08:03:55;97119.47;;;10.45;75.94
72274;BME280;77240;48.692;8.948;2024-03-22T08:06:22;97126.69;;;10.58;74.78
72274;BME280;77240;48.692;8.948;2024-03-22T08:08:48;97127.56;;;10.72;74.43
72274;BME280;77240;48.692;8.948;2024-03-22T08:11:14;97131.97;;;10.85;73.81
72274;BME280;77240;48.692;8.948;2024-03-22T08:13:40;97137.94;;;11.00;73.47
72274;BME280;77240;48.692;8.948;2024-03-22T08:16:06;97129.97;;;11.14;73.20
72274;BME280;77240;48.692;8.948;2024-03-22T08:18:32;97128.78;;;11.28;72.62
72274;BME280;77240;48.692;8.948;2024-03-22T08:21:02;97120.03;;;11.42;72.33
72274;BME280;77240;48.692;8.948;2024-03-22T08:23:29;97126.00;;;11.57;72.12
72274;BME280;77240;48.692;8.948;2024-03-22T08:25:55;97112.06;;;11.69;71.89
72274;BME280;77240;48.692;8.948;2024-03-22T08:28:24;97108.84;;;11.84;70.77
72274;BME280;77240;48.692;8.948;2024-03-22T08:30:50;97107.31;;;11.95;70.44
72274;BME280;77240;48.692;8.948;2024-03-22T08:33:18;97102.53;;;12.08;69.73
72274;BME280;77240;48.692;8.948;2024-03-22T08:35:44;97104.53;;;12.21;69.96
72274;BME280;77240;48.692;8.948;2024-03-22T08:38:10;97102.81;;;12.36;68.81
72274;BME280;77240;48.692;8.948;2024-03-22T08:40:40;97103.16;;;12.50;67.95
72274;BME280;77240;48.692;8.948;2024-03-22T08:43:06;97105.47;;;12.64;67.40
72274;BME280;77240;48.692;8.948;2024-03-22T08:45:35;97098.59;;;12.78;67.52
72274;BME280;77240;48.692;8.948;2024-03-22T08:48:02;97094.88;;;12.94;66.43
72274;BME280;77240;48.692;8.948;2024-03-22T08:50:28;97090.25;;;13.13;66.43
72274;BME280;77240;48.692;8.948;2024-03-22T08:52:54;97085.75;;;13.37;64.86
72274;BME280;77240;48.692;8.948;2024-03-22T08:55:20;97091.66;;;13.60;64.22
72274;BME280;77240;48.692;8.948;2024-03-22T08:57:46;97081.97;;;13.83;62.41
72274;BME280;77240;48.692;8.948;2024-03-22T09:00:13;97069.94;;;14.04;61.57
72274;BME280;77240;48.692;8.948;2024-03-22T09:02:39;97072.34;;;14.24;59.78
72274;BME280;77240;48.692;8.948;2024-03-22T09:05:05;97072.72;;;14.44;56.95
72274;BME280;77240;48.692;8.948;2024-03-22T09:07:31;97070.00;;;14.63;55.48
72274;BME280;77240;48.692;8.948;2024-03-22T09:09:57;97065.94;;;14.82;55.25
72274;BME280;77240;48.692;8.948;2024-03-22T09:12:23;97065.34;;;15.05;54.64
72274;BME280;77240;48.692;8.948;2024-03-22T09:14:51;97064.53;;;15.32;54.15
72274;BME280;77240;48.692;8.948;2024-03-22T09:17:17;97066.84;;;15.61;53.71
72274;BME280;77240;48.692;8.948;2024-03-22T09:19:43;97058.19;;;15.91;52.61
72274;BME280;77240;48.692;8.948;2024-03-22T09:22:09;97056.97;;;16.25;51.70
72274;BME280;77240;48.692;8.948;2024-03-22T09:24:35;97057.56;;;16.62;48.36
72274;BME280;77240;48.692;8.948;2024-03-22T09:27:01;97048.56;;;16.96;48.20
72274;BME280;77240;48.692;8.948;2024-03-22T09:29:30;97051.34;;;17.35;47.54
72274;BME280;77240;48.692;8.948;2024-03-22T09:31:57;97052.19;;;17.65;45.06
72274;BME280;77240;48.692;8.948;2024-03-22T09:34:23;97056.84;;;17.82;42.89
72274;BME280;77240;48.692;8.948;2024-03-22T09:36:50;97041.38;;;17.92;41.50
72274;BME280;77240;48.692;8.948;2024-03-22T09:39:16;97032.91;;;18.07;41.56
72274;BME280;77240;48.692;8.948;2024-03-22T09:41:43;97027.44;;;18.18;42.17
72274;BME280;77240;48.692;8.948;2024-03-22T09:44:13;97033.66;;;18.22;43.41
72274;BME280;77240;48.692;8.948;2024-03-22T09:46:44;97032.41;;;18.23;41.66
72274;BME280;77240;48.692;8.948;2024-03-22T09:49:13;97032.78;;;18.31;40.50
72274;BME280;77240;48.692;8.948;2024-03-22T09:51:39;97020.72;;;18.51;38.89
72274;BME280;77240;48.692;8.948;2024-03-22T09:54:11;97020.56;;;18.74;38.95
72274;BME280;77240;48.692;8.948;2024-03-22T09:56:42;97019.19;;;19.10;38.13
72274;BME280;77240;48.692;8.948;2024-03-22T09:59:10;97011.09;;;19.44;36.20
72274;BME280;77240;48.692;8.948;2024-03-22T10:01:40;97015.25;;;19.74;36.40
72274;BME280;77240;48.692;8.948;2024-03-22T10:04:07;97017.84;;;20.09;36.62
72274;BME280;77240;48.692;8.948;2024-03-22T10:06:35;97022.19;;;20.36;36.61
72274;BME280;77240;48.692;8.948;2024-03-22T10:09:02;97014.31;;;20.51;36.80
72274;BME280;77240;48.692;8.948;2024-03-22T10:11:30;97012.78;;;20.55;36.92
72274;BME280;77240;48.692;8.948;2024-03-22T10:13:56;97003.06;;;20.67;37.44
72274;BME280;77240;48.692;8.948;2024-03-22T10:16:23;96991.84;;;20.90;36.83
72274;BME280;77240;48.692;8.948;2024-03-22T10:18:49;97006.16;;;21.28;35.82
72274;BME280;77240;48.692;8.948;2024-03-22T10:21:18;96999.53;;;21.76;35.17
72274;BME280;77240;48.692;8.948;2024-03-22T10:23:46;97000.03;;;22.41;33.62
72274;BME280;77240;48.692;8.948;2024-03-22T10:26:14;96991.84;;;23.06;31.02
72274;BME280;77240;48.692;8.948;2024-03-22T10:28:45;96988.16;;;23.63;29.40
72274;BME280;77240;48.692;8.948;2024-03-22T10:31:13;96985.28;;;24.04;26.95
72274;BME280;77240;48.692;8.948;2024-03-22T10:33:44;96982.59;;;24.18;27.30
72274;BME280;77240;48.692;8.948;2024-03-22T10:36:11;96979.75;;;24.18;28.13
72274;BME280;77240;48.692;8.948;2024-03-22T10:38:39;96962.66;;;24.18;28.51
72274;BME280;77240;48.692;8.948;2024-03-22T10:41:06;96966.28;;;24.18;26.32
72274;BME280;77240;48.692;8.948;2024-03-22T10:43:32;96957.97;;;24.20;26.96
72274;BME280;77240;48.692;8.948;2024-03-22T10:46:02;96954.53;;;24.27;26.55
72274;BME280;77240;48.692;8.948;2024-03-22T10:48:30;96953.41;;;24.36;25.94
72274;BME280;77240;48.692;8.948;2024-03-22T10:51:01;96945.56;;;24.42;24.96
72274;BME280;77240;48.692;8.948;2024-03-22T10:53:31;96935.38;;;24.52;25.23
72274;BME280;77240;48.692;8.948;2024-03-22T10:55:58;96945.09;;;25.05;25.26
72274;BME280;77240;48.692;8.948;2024-03-22T10:58:26;96939.16;;;25.59;24.53
72274;BME280;77240;48.692;8.948;2024-03-22T11:00:55;96935.91;;;26.00;23.55
72274;BME280;77240;48.692;8.948;2024-03-22T11:03:23;96936.53;;;26.77;23.25
72274;BME280;77240;48.692;8.948;2024-03-22T11:05:54;96931.59;;;27.51;21.66
72274;BME280;77240;48.692;8.948;2024-03-22T11:08:30;96927.38;;;28.27;21.56
72274;BME280;77240;48.692;8.948;2024-03-22T11:10:57;96928.66;;;29.11;19.92
72274;BME280;77240;48.692;8.948;2024-03-22T11:13:23;96921.31;;;29.97;18.88
72274;BME280;77240;48.692;8.948;2024-03-22T11:15:50;96922.22;;;30.83;18.05
72274;BME280;77240;48.692;8.948;2024-03-22T11:18:20;96929.03;;;31.65;17.23
72274;BME280;77240;48.692;8.948;2024-03-22T11:20:46;96917.97;;;32.36;16.20
72274;BME280;77240;48.692;8.948;2024-03-22T11:23:13;96922.56;;;32.98;15.56
72274;BME280;77240;48.692;8.948;2024-03-22T11:25:40;96918.03;;;33.56;13.92
72274;BME280;77240;48.692;8.948;2024-03-22T11:28:06;96910.84;;;34.01;13.78
72274;BME280;77240;48.692;8.948;2024-03-22T11:30:36;96909.00;;;34.33;13.45
72274;BME280;77240;48.692;8.948;2024-03-22T11:33:03;96896.84;;;34.44;13.55
72274;BME280;77240;48.692;8.948;2024-03-22T11:35:30;96897.78;;;34.46;13.82
72274;BME280;77240;48.692;8.948;2024-03-22T11:37:57;96895.59;;;34.28;13.46
72274;BME280;77240;48.692;8.948;2024-03-22T11:40:25;96889.06;;;34.00;13.55
72274;BME280;77240;48.692;8.948;2024-03-22T11:42:54;96880.28;;;33.72;13.93
72274;BME280;77240;48.692;8.948;2024-03-22T11:45:21;96875.50;;;33.40;14.79
72274;BME280;77240;48.692;8.948;2024-03-22T11:47:49;96872.56;;;33.13;14.61
72274;BME280;77240;48.692;8.948;2024-03-22T11:50:15;96870.34;;;32.87;15.14
72274;BME280;77240;48.692;8.948;2024-03-22T11:52:43;96868.09;;;32.68;14.80
72274;BME280;77240;48.692;8.948;2024-03-22T11:55:13;96859.03;;;32.47;15.24
72274;BME280;77240;48.692;8.948;2024-03-22T11:57:40;96864.78;;;32.30;15.71
72274;BME280;77240;48.692;8.948;2024-03-22T12:00:07;96856.78;;;31.71;16.45
72274;BME280;77240;48.692;8.948;2024-03-22T12:02:40;96856.63;;;31.29;16.99
72274;BME280;77240;48.692;8.948;2024-03-22T12:05:07;96851.13;;;31.16;16.88
72274;BME280;77240;48.692;8.948;2024-03-22T12:07:36;96841.78;;;31.08;17.14
72274;BME280;77240;48.692;8.948;2024-03-22T12:10:03;96844.84;;;31.10;17.27
72274;BME280;77240;48.692;8.948;2024-03-22T12:12:30;96835.75;;;31.21;16.97
72274;BME280;77240;48.692;8.948;2024-03-22T12:14:56;96827.31;;;31.55;16.81
72274;BME280;77240;48.692;8.948;2024-03-22T12:17:24;96817.72;;;32.02;16.32
72274;BME280;77240;48.692;8.948;2024-03-22T12:19:50;96800.75;;;32.48;15.80
72274;BME280;77240;48.692;8.948;2024-03-22T12:22:17;96801.78;;;32.78;15.59
72274;BME280;77240;48.692;8.948;2024-03-22T12:24:43;96793.56;;;33.18;14.95
72274;BME280;77240;48.692;8.948;2024-03-22T12:27:10;96789.28;;;33.73;14.19
72274;BME280;77240;48.692;8.948;2024-03-22T12:29:36;96780.63;;;34.19;14.57
72274;BME280;77240;48.692;8.948;2024-03-22T12:32:02;96790.38;;;34.23;13.37
72274;BME280;77240;48.692;8.948;2024-03-22T12:34:32;96777.78;;;33.82;13.46
72274;BME280;77240;48.692;8.948;2024-03-22T12:36:59;96782.84;;;33.28;14.31
72274;BME280;77240;48.692;8.948;2024-03-22T12:39:26;96776.50;;;32.51;15.03
72274;BME280;77240;48.692;8.948;2024-03-22T12:41:52;96768.84;;;31.70;15.49
72274;BME280;77240;48.692;8.948;2024-03-22T12:44:20;96758.63;;;31.19;16.72
72274;BME280;77240;48.692;8.948;2024-03-22T12:46:47;96757.06;;;30.86;16.89
72274;BME280;77240;48.692;8.948;2024-03-22T12:49:14;96755.31;;;30.51;17.05
72274;BME280;77240;48.692;8.948;2024-03-22T12:51:40;96754.25;;;30.08;17.29
72274;BME280;77240;48.692;8.948;2024-03-22T12:54:08;96748.94;;;29.59;18.45
72274;BME280;77240;48.692;8.948;2024-03-22T12:56:35;96745.28;;;29.21;18.40
72274;BME280;77240;48.692;8.948;2024-03-22T12:59:03;96732.22;;;28.97;18.34
72274;BME280;77240;48.692;8.948;2024-03-22T13:01:30;96724.91;;;28.73;19.25
72274;BME280;77240;48.692;8.948;2024-03-22T13:03:56;96726.28;;;28.87;19.12
72274;BME280;77240;48.692;8.948;2024-03-22T13:06:22;96714.13;;;28.66;19.29